SASO2: Little River At Sasakwa, OK

Data processed at Wed May 22 2019 23:30


All information presented herein is the property of the government of the United States of America and may be revised or deleted at any time without prior notice.
Dissemination of this information without the expressed written consent of the Public Affairs Office, Tulsa District U.S. Army Corps of Engineers is strictly prohibited.
These data are gathered electronically and, as presented, have not undergone any form of quality control. These data are not guaranteed to be valid or correct.
Go to home page.
Go to station list.
Go to home page.

Upstream stations:

Downstream station:
Previous Day
Next Day
Current Day
    
SHEF ID:       SASO2     Little River near Sasakwa, OK
STATION TYPE:  
Regulating: Stage =    26.00, Flow =    14931

                STAGE  RIV-FLOW  BAT-LOAD
                   ft       cfs      volt
              Ccp-Rev   Ccp-Rev   Ccp-Rev
(US/Central)
05/22 00:00     12.13      3207     12.41
05/22 01:00     12.12      3201     12.41
05/22 02:00     12.09      3184     12.41
05/22 03:00     11.99      3128     12.41
05/22 04:00     11.92      3089     12.41
05/22 05:00     11.85      3050     12.41
05/22 06:00     11.75      2995     12.41
05/22 07:00     11.64      2935     12.33
05/22 08:00     11.51      2864     12.41
05/22 09:00     11.41      2810     12.41
05/22 10:00     11.29      2747     12.73
05/22 11:00     11.18      2689     12.89
05/22 12:00     11.01      2600     13.05
05/22 13:00     10.84      2513     13.44
05/22 14:00     10.67      2427     13.84
05/22 15:00     10.48      2332     13.53
05/22 16:00     10.27      2230     13.53
05/22 17:00     10.09      2144     13.44
05/22 18:00      9.90      2054     13.53
05/22 19:00      9.70      1962     13.29
05/22 20:00      9.53      1885     12.89
05/22 21:00      9.38      1818     12.57
05/22 22:00      9.23      1755     12.41
05/22 23:00      ----      ----      ----